sensor_id;sensor_type;location;lat;lon;timestamp;P1;durP1;ratioP1;P2;durP2;ratioP2
25731;SDS011;13585;50.864;4.406;2023-11-21T00:02:04;6.88;;;5.35;;
25731;SDS011;13585;50.864;4.406;2023-11-21T00:04:29;7.43;;;5.45;;
25731;SDS011;13585;50.864;4.406;2023-11-21T00:06:55;8.63;;;5.43;;
25731;SDS011;13585;50.864;4.406;2023-11-21T00:09:21;8.32;;;5.40;;
25731;SDS011;13585;50.864;4.406;2023-11-21T00:11:47;7.88;;;5.13;;
25731;SDS011;13585;50.864;4.406;2023-11-21T00:14:13;8.35;;;5.60;;
25731;SDS011;13585;50.864;4.406;2023-11-21T00:16:40;8.90;;;5.80;;
25731;SDS011;13585;50.864;4.406;2023-11-21T00:19:06;8.55;;;5.80;;
25731;SDS011;13585;50.864;4.406;2023-11-21T00:21:31;6.90;;;5.32;;
25731;SDS011;13585;50.864;4.406;2023-11-21T00:23:57;8.68;;;5.90;;
25731;SDS011;13585;50.864;4.406;2023-11-21T00:26:31;8.43;;;5.47;;
25731;SDS011;13585;50.864;4.406;2023-11-21T00:29:01;8.02;;;5.50;;
25731;SDS011;13585;50.864;4.406;2023-11-21T00:31:27;7.10;;;5.45;;
25731;SDS011;13585;50.864;4.406;2023-11-21T00:33:52;6.95;;;5.53;;
25731;SDS011;13585;50.864;4.406;2023-11-21T00:36:28;7.70;;;5.00;;
25731;SDS011;13585;50.864;4.406;2023-11-21T00:38:54;7.60;;;5.32;;
25731;SDS011;13585;50.864;4.406;2023-11-21T00:41:20;9.98;;;5.43;;
25731;SDS011;13585;50.864;4.406;2023-11-21T00:43:46;6.53;;;5.05;;
25731;SDS011;13585;50.864;4.406;2023-11-21T00:46:12;9.23;;;5.90;;
25731;SDS011;13585;50.864;4.406;2023-11-21T00:48:40;7.55;;;5.80;;
25731;SDS011;13585;50.864;4.406;2023-11-21T00:51:06;8.07;;;5.93;;
25731;SDS011;13585;50.864;4.406;2023-11-21T00:53:31;9.07;;;5.75;;
25731;SDS011;13585;50.864;4.406;2023-11-21T00:55:57;7.82;;;5.50;;
25731;SDS011;13585;50.864;4.406;2023-11-21T00:58:24;6.97;;;5.35;;
25731;SDS011;13585;50.864;4.406;2023-11-21T01:00:49;7.50;;;5.35;;
25731;SDS011;13585;50.864;4.406;2023-11-21T01:03:15;8.25;;;5.63;;
25731;SDS011;13585;50.864;4.406;2023-11-21T01:05:41;7.03;;;5.40;;
25731;SDS011;13585;50.864;4.406;2023-11-21T01:08:07;7.70;;;5.40;;
25731;SDS011;13585;50.864;4.406;2023-11-21T01:10:32;7.43;;;5.50;;
25731;SDS011;13585;50.864;4.406;2023-11-21T01:12:59;7.53;;;5.65;;
25731;SDS011;13585;50.864;4.406;2023-11-21T01:15:24;7.40;;;5.30;;
25731;SDS011;13585;50.864;4.406;2023-11-21T01:17:51;8.30;;;5.43;;
25731;SDS011;13585;50.864;4.406;2023-11-21T01:20:17;7.07;;;5.45;;
25731;SDS011;13585;50.864;4.406;2023-11-21T01:22:43;6.95;;;5.13;;
25731;SDS011;13585;50.864;4.406;2023-11-21T01:25:09;6.82;;;5.22;;
25731;SDS011;13585;50.864;4.406;2023-11-21T01:27:35;7.43;;;5.30;;
25731;SDS011;13585;50.864;4.406;2023-11-21T01:30:23;7.05;;;5.38;;
25731;SDS011;13585;50.864;4.406;2023-11-21T01:32:48;8.05;;;6.03;;
25731;SDS011;13585;50.864;4.406;2023-11-21T01:35:15;7.50;;;5.60;;
25731;SDS011;13585;50.864;4.406;2023-11-21T01:37:40;7.22;;;5.30;;
25731;SDS011;13585;50.864;4.406;2023-11-21T01:40:06;8.63;;;5.28;;
25731;SDS011;13585;50.864;4.406;2023-11-21T01:42:35;7.05;;;5.55;;
25731;SDS011;13585;50.864;4.406;2023-11-21T01:45:01;7.47;;;5.25;;
25731;SDS011;13585;50.864;4.406;2023-11-21T01:47:33;8.75;;;5.65;;
25731;SDS011;13585;50.864;4.406;2023-11-21T01:50:00;6.90;;;5.28;;
25731;SDS011;13585;50.864;4.406;2023-11-21T01:52:29;6.25;;;5.18;;
25731;SDS011;13585;50.864;4.406;2023-11-21T01:54:55;7.78;;;5.43;;
25731;SDS011;13585;50.864;4.406;2023-11-21T01:57:21;7.25;;;5.07;;
25731;SDS011;13585;50.864;4.406;2023-11-21T01:59:47;7.35;;;5.40;;
25731;SDS011;13585;50.864;4.406;2023-11-21T02:02:14;7.07;;;5.55;;
25731;SDS011;13585;50.864;4.406;2023-11-21T02:04:40;6.40;;;4.93;;
25731;SDS011;13585;50.864;4.406;2023-11-21T02:07:06;6.78;;;5.18;;
25731;SDS011;13585;50.864;4.406;2023-11-21T02:09:31;7.03;;;5.05;;
25731;SDS011;13585;50.864;4.406;2023-11-21T02:11:59;8.05;;;5.30;;
25731;SDS011;13585;50.864;4.406;2023-11-21T02:14:25;6.93;;;5.40;;
25731;SDS011;13585;50.864;4.406;2023-11-21T02:16:52;8.38;;;5.45;;
25731;SDS011;13585;50.864;4.406;2023-11-21T02:19:19;6.22;;;4.85;;
25731;SDS011;13585;50.864;4.406;2023-11-21T02:21:50;6.90;;;5.35;;
25731;SDS011;13585;50.864;4.406;2023-11-21T02:24:21;7.00;;;5.20;;
25731;SDS011;13585;50.864;4.406;2023-11-21T02:26:50;5.88;;;4.82;;
25731;SDS011;13585;50.864;4.406;2023-11-21T02:29:17;5.82;;;4.65;;
25731;SDS011;13585;50.864;4.406;2023-11-21T02:31:44;6.88;;;4.65;;
25731;SDS011;13585;50.864;4.406;2023-11-21T02:34:17;6.22;;;4.88;;
25731;SDS011;13585;50.864;4.406;2023-11-21T02:36:45;6.75;;;5.00;;
25731;SDS011;13585;50.864;4.406;2023-11-21T02:39:12;7.47;;;5.30;;
25731;SDS011;13585;50.864;4.406;2023-11-21T02:41:38;6.25;;;4.80;;
25731;SDS011;13585;50.864;4.406;2023-11-21T02:44:04;7.00;;;5.13;;
25731;SDS011;13585;50.864;4.406;2023-11-21T02:46:33;6.60;;;4.82;;
25731;SDS011;13585;50.864;4.406;2023-11-21T02:49:03;7.07;;;5.05;;
25731;SDS011;13585;50.864;4.406;2023-11-21T02:51:29;6.45;;;4.88;;
25731;SDS011;13585;50.864;4.406;2023-11-21T02:53:55;7.35;;;4.65;;
25731;SDS011;13585;50.864;4.406;2023-11-21T02:56:25;8.85;;;5.25;;
25731;SDS011;13585;50.864;4.406;2023-11-21T02:58:51;5.65;;;4.28;;
25731;SDS011;13585;50.864;4.406;2023-11-21T03:01:17;6.55;;;4.65;;
25731;SDS011;13585;50.864;4.406;2023-11-21T03:03:43;6.68;;;5.00;;
25731;SDS011;13585;50.864;4.406;2023-11-21T03:06:08;5.68;;;4.43;;
25731;SDS011;13585;50.864;4.406;2023-11-21T03:08:34;6.72;;;4.60;;
25731;SDS011;13585;50.864;4.406;2023-11-21T03:11:00;5.85;;;4.75;;
25731;SDS011;13585;50.864;4.406;2023-11-21T03:13:27;5.97;;;4.85;;
25731;SDS011;13585;50.864;4.406;2023-11-21T03:15:53;5.88;;;4.68;;
25731;SDS011;13585;50.864;4.406;2023-11-21T03:18:19;4.80;;;3.83;;
25731;SDS011;13585;50.864;4.406;2023-11-21T03:20:47;6.63;;;4.55;;
25731;SDS011;13585;50.864;4.406;2023-11-21T03:23:12;5.65;;;4.07;;
25731;SDS011;13585;50.864;4.406;2023-11-21T03:25:38;5.55;;;4.43;;
25731;SDS011;13585;50.864;4.406;2023-11-21T03:28:04;5.95;;;3.92;;
25731;SDS011;13585;50.864;4.406;2023-11-21T03:30:30;5.65;;;3.97;;
25731;SDS011;13585;50.864;4.406;2023-11-21T03:32:55;5.55;;;4.07;;
25731;SDS011;13585;50.864;4.406;2023-11-21T03:35:21;5.32;;;4.30;;
25731;SDS011;13585;50.864;4.406;2023-11-21T03:37:48;4.65;;;3.90;;
25731;SDS011;13585;50.864;4.406;2023-11-21T03:40:14;5.55;;;4.20;;
25731;SDS011;13585;50.864;4.406;2023-11-21T03:42:59;4.55;;;3.97;;
25731;SDS011;13585;50.864;4.406;2023-11-21T03:45:25;5.80;;;4.13;;
25731;SDS011;13585;50.864;4.406;2023-11-21T03:47:51;4.43;;;3.58;;
25731;SDS011;13585;50.864;4.406;2023-11-21T03:50:16;6.25;;;4.07;;
25731;SDS011;13585;50.864;4.406;2023-11-21T03:52:42;4.68;;;3.90;;
25731;SDS011;13585;50.864;4.406;2023-11-21T03:55:08;5.57;;;4.00;;
25731;SDS011;13585;50.864;4.406;2023-11-21T03:57:35;5.80;;;3.78;;
25731;SDS011;13585;50.864;4.406;2023-11-21T04:00:01;5.20;;;3.95;;
25731;SDS011;13585;50.864;4.406;2023-11-21T04:02:29;4.90;;;3.90;;
25731;SDS011;13585;50.864;4.406;2023-11-21T04:04:56;6.13;;;3.97;;
25731;SDS011;13585;50.864;4.406;2023-11-21T04:07:22;6.20;;;3.67;;
25731;SDS011;13585;50.864;4.406;2023-11-21T04:09:47;5.47;;;3.67;;
25731;SDS011;13585;50.864;4.406;2023-11-21T04:12:13;5.13;;;3.50;;
25731;SDS011;13585;50.864;4.406;2023-11-21T04:14:39;4.18;;;3.58;;
25731;SDS011;13585;50.864;4.406;2023-11-21T04:17:04;4.75;;;3.65;;
25731;SDS011;13585;50.864;4.406;2023-11-21T04:19:30;4.72;;;3.55;;
25731;SDS011;13585;50.864;4.406;2023-11-21T04:21:56;3.90;;;3.10;;
25731;SDS011;13585;50.864;4.406;2023-11-21T04:24:21;5.30;;;3.78;;
25731;SDS011;13585;50.864;4.406;2023-11-21T04:26:47;5.32;;;3.65;;
25731;SDS011;13585;50.864;4.406;2023-11-21T04:29:12;5.03;;;3.63;;
25731;SDS011;13585;50.864;4.406;2023-11-21T04:31:38;5.28;;;3.47;;
25731;SDS011;13585;50.864;4.406;2023-11-21T04:34:03;5.45;;;3.60;;
25731;SDS011;13585;50.864;4.406;2023-11-21T04:36:29;4.60;;;3.58;;
25731;SDS011;13585;50.864;4.406;2023-11-21T04:38:56;4.78;;;3.67;;
25731;SDS011;13585;50.864;4.406;2023-11-21T04:41:22;3.90;;;3.38;;
25731;SDS011;13585;50.864;4.406;2023-11-21T04:43:47;5.82;;;3.72;;
25731;SDS011;13585;50.864;4.406;2023-11-21T04:46:13;4.70;;;3.40;;
25731;SDS011;13585;50.864;4.406;2023-11-21T04:48:39;4.82;;;3.53;;
25731;SDS011;13585;50.864;4.406;2023-11-21T04:51:05;4.88;;;3.53;;
25731;SDS011;13585;50.864;4.406;2023-11-21T04:53:31;5.38;;;3.67;;
25731;SDS011;13585;50.864;4.406;2023-11-21T04:55:57;4.70;;;3.67;;
25731;SDS011;13585;50.864;4.406;2023-11-21T04:58:23;4.82;;;3.35;;
25731;SDS011;13585;50.864;4.406;2023-11-21T05:00:48;4.20;;;3.60;;
25731;SDS011;13585;50.864;4.406;2023-11-21T05:03:14;5.70;;;3.22;;
25731;SDS011;13585;50.864;4.406;2023-11-21T05:05:40;5.43;;;3.47;;
25731;SDS011;13585;50.864;4.406;2023-11-21T05:08:05;5.05;;;3.60;;
25731;SDS011;13585;50.864;4.406;2023-11-21T05:10:31;5.15;;;3.75;;
25731;SDS011;13585;50.864;4.406;2023-11-21T05:12:57;4.95;;;3.47;;
25731;SDS011;13585;50.864;4.406;2023-11-21T05:15:23;5.40;;;3.40;;
25731;SDS011;13585;50.864;4.406;2023-11-21T05:17:49;4.13;;;2.92;;
25731;SDS011;13585;50.864;4.406;2023-11-21T05:20:17;4.28;;;3.30;;
25731;SDS011;13585;50.864;4.406;2023-11-21T05:22:45;4.63;;;3.53;;
25731;SDS011;13585;50.864;4.406;2023-11-21T05:25:14;5.55;;;3.58;;
25731;SDS011;13585;50.864;4.406;2023-11-21T05:27:40;6.80;;;4.00;;
25731;SDS011;13585;50.864;4.406;2023-11-21T05:30:06;4.53;;;3.25;;
25731;SDS011;13585;50.864;4.406;2023-11-21T05:32:37;5.83;;;3.80;;
25731;SDS011;13585;50.864;4.406;2023-11-21T05:35:02;5.57;;;3.60;;
25731;SDS011;13585;50.864;4.406;2023-11-21T05:37:28;5.22;;;3.53;;
25731;SDS011;13585;50.864;4.406;2023-11-21T05:39:57;4.78;;;3.45;;
25731;SDS011;13585;50.864;4.406;2023-11-21T05:42:23;4.25;;;3.10;;
25731;SDS011;13585;50.864;4.406;2023-11-21T05:44:48;5.60;;;3.30;;
25731;SDS011;13585;50.864;4.406;2023-11-21T05:47:14;5.05;;;3.20;;
25731;SDS011;13585;50.864;4.406;2023-11-21T05:49:40;4.60;;;3.03;;
25731;SDS011;13585;50.864;4.406;2023-11-21T05:52:05;4.47;;;3.42;;
25731;SDS011;13585;50.864;4.406;2023-11-21T05:54:31;4.97;;;3.15;;
25731;SDS011;13585;50.864;4.406;2023-11-21T05:56:57;3.83;;;3.10;;
25731;SDS011;13585;50.864;4.406;2023-11-21T05:59:24;5.30;;;3.47;;
25731;SDS011;13585;50.864;4.406;2023-11-21T06:01:49;4.38;;;3.53;;
25731;SDS011;13585;50.864;4.406;2023-11-21T06:04:15;3.17;;;2.78;;
25731;SDS011;13585;50.864;4.406;2023-11-21T06:06:40;4.53;;;3.13;;
25731;SDS011;13585;50.864;4.406;2023-11-21T06:09:06;5.82;;;3.53;;
25731;SDS011;13585;50.864;4.406;2023-11-21T06:11:36;5.85;;;3.13;;
25731;SDS011;13585;50.864;4.406;2023-11-21T06:14:02;5.65;;;3.30;;
25731;SDS011;13585;50.864;4.406;2023-11-21T06:16:28;4.22;;;2.90;;
25731;SDS011;13585;50.864;4.406;2023-11-21T06:18:54;5.00;;;3.50;;
25731;SDS011;13585;50.864;4.406;2023-11-21T06:21:19;6.85;;;3.40;;
25731;SDS011;13585;50.864;4.406;2023-11-21T06:23:45;4.20;;;3.15;;
25731;SDS011;13585;50.864;4.406;2023-11-21T06:26:10;4.55;;;3.30;;
25731;SDS011;13585;50.864;4.406;2023-11-21T06:28:37;6.90;;;3.35;;
25731;SDS011;13585;50.864;4.406;2023-11-21T06:31:03;4.95;;;3.25;;
25731;SDS011;13585;50.864;4.406;2023-11-21T06:33:32;5.72;;;3.13;;
25731;SDS011;13585;50.864;4.406;2023-11-21T06:35:58;4.13;;;3.22;;
25731;SDS011;13585;50.864;4.406;2023-11-21T06:38:25;5.28;;;3.28;;
25731;SDS011;13585;50.864;4.406;2023-11-21T06:40:53;4.80;;;3.33;;
25731;SDS011;13585;50.864;4.406;2023-11-21T06:43:19;6.43;;;3.38;;
25731;SDS011;13585;50.864;4.406;2023-11-21T06:45:47;4.57;;;2.90;;
25731;SDS011;13585;50.864;4.406;2023-11-21T06:48:12;4.93;;;3.10;;
25731;SDS011;13585;50.864;4.406;2023-11-21T06:50:38;8.82;;;3.30;;
25731;SDS011;13585;50.864;4.406;2023-11-21T06:53:04;5.93;;;3.08;;
25731;SDS011;13585;50.864;4.406;2023-11-21T06:55:32;6.90;;;3.67;;
25731;SDS011;13585;50.864;4.406;2023-11-21T06:57:57;3.50;;;2.90;;
25731;SDS011;13585;50.864;4.406;2023-11-21T07:00:25;4.88;;;2.75;;
25731;SDS011;13585;50.864;4.406;2023-11-21T07:02:52;3.88;;;2.75;;
25731;SDS011;13585;50.864;4.406;2023-11-21T07:05:19;4.05;;;2.97;;
25731;SDS011;13585;50.864;4.406;2023-11-21T07:07:46;5.18;;;3.00;;
25731;SDS011;13585;50.864;4.406;2023-11-21T07:10:13;4.25;;;3.35;;
25731;SDS011;13585;50.864;4.406;2023-11-21T07:12:39;3.53;;;2.75;;
25731;SDS011;13585;50.864;4.406;2023-11-21T07:15:05;4.75;;;3.17;;
25731;SDS011;13585;50.864;4.406;2023-11-21T07:17:34;5.57;;;3.35;;
25731;SDS011;13585;50.864;4.406;2023-11-21T07:20:01;4.68;;;3.00;;
25731;SDS011;13585;50.864;4.406;2023-11-21T07:22:27;5.22;;;3.08;;
25731;SDS011;13585;50.864;4.406;2023-11-21T07:24:53;5.10;;;2.97;;
25731;SDS011;13585;50.864;4.406;2023-11-21T07:27:19;4.50;;;3.08;;
25731;SDS011;13585;50.864;4.406;2023-11-21T07:29:44;4.35;;;3.03;;
25731;SDS011;13585;50.864;4.406;2023-11-21T07:32:10;5.32;;;3.25;;
25731;SDS011;13585;50.864;4.406;2023-11-21T07:34:36;4.50;;;3.10;;
25731;SDS011;13585;50.864;4.406;2023-11-21T07:37:02;5.85;;;3.20;;
25731;SDS011;13585;50.864;4.406;2023-11-21T07:39:28;4.88;;;3.28;;
25731;SDS011;13585;50.864;4.406;2023-11-21T07:41:54;4.88;;;3.10;;
25731;SDS011;13585;50.864;4.406;2023-11-21T07:44:21;4.35;;;2.90;;
25731;SDS011;13585;50.864;4.406;2023-11-21T07:46:46;4.95;;;3.10;;
25731;SDS011;13585;50.864;4.406;2023-11-21T07:49:12;4.15;;;2.72;;
25731;SDS011;13585;50.864;4.406;2023-11-21T07:51:46;8.52;;;3.47;;
25731;SDS011;13585;50.864;4.406;2023-11-21T07:54:11;4.47;;;2.90;;
25731;SDS011;13585;50.864;4.406;2023-11-21T07:56:37;5.80;;;3.20;;
25731;SDS011;13585;50.864;4.406;2023-11-21T07:59:03;4.28;;;3.53;;
25731;SDS011;13585;50.864;4.406;2023-11-21T08:01:29;5.47;;;3.95;;
25731;SDS011;13585;50.864;4.406;2023-11-21T08:03:55;5.22;;;3.42;;
25731;SDS011;13585;50.864;4.406;2023-11-21T08:06:24;5.22;;;3.17;;
25731;SDS011;13585;50.864;4.406;2023-11-21T08:08:50;5.63;;;3.33;;
25731;SDS011;13585;50.864;4.406;2023-11-21T08:11:16;5.35;;;2.92;;
25731;SDS011;13585;50.864;4.406;2023-11-21T08:13:41;4.78;;;3.30;;
25731;SDS011;13585;50.864;4.406;2023-11-21T08:16:07;5.57;;;3.22;;
25731;SDS011;13585;50.864;4.406;2023-11-21T08:18:33;3.95;;;3.22;;
25731;SDS011;13585;50.864;4.406;2023-11-21T08:20:59;4.13;;;2.97;;
25731;SDS011;13585;50.864;4.406;2023-11-21T08:23:25;6.18;;;3.17;;
25731;SDS011;13585;50.864;4.406;2023-11-21T08:25:54;5.20;;;3.20;;
25731;SDS011;13585;50.864;4.406;2023-11-21T08:33:34;4.30;;;2.90;;
25731;SDS011;13585;50.864;4.406;2023-11-21T08:36:00;5.07;;;3.20;;
25731;SDS011;13585;50.864;4.406;2023-11-21T08:38:48;4.40;;;3.35;;
25731;SDS011;13585;50.864;4.406;2023-11-21T08:41:20;5.15;;;3.50;;
25731;SDS011;13585;50.864;4.406;2023-11-21T08:43:51;5.88;;;3.60;;
25731;SDS011;13585;50.864;4.406;2023-11-21T08:46:32;4.53;;;3.40;;
25731;SDS011;13585;50.864;4.406;2023-11-21T08:51:29;6.20;;;3.72;;
25731;SDS011;13585;50.864;4.406;2023-11-21T08:53:55;5.20;;;3.33;;
25731;SDS011;13585;50.864;4.406;2023-11-21T08:56:27;5.60;;;3.75;;
25731;SDS011;13585;50.864;4.406;2023-11-21T08:58:59;3.80;;;3.10;;
25731;SDS011;13585;50.864;4.406;2023-11-21T09:01:27;5.88;;;3.75;;
25731;SDS011;13585;50.864;4.406;2023-11-21T09:04:21;5.72;;;3.63;;
25731;SDS011;13585;50.864;4.406;2023-11-21T09:07:02;7.65;;;3.60;;
25731;SDS011;13585;50.864;4.406;2023-11-21T09:09:33;5.20;;;3.70;;
25731;SDS011;13585;50.864;4.406;2023-11-21T09:12:34;8.30;;;3.97;;
25731;SDS011;13585;50.864;4.406;2023-11-21T09:15:11;6.53;;;4.10;;
25731;SDS011;13585;50.864;4.406;2023-11-21T09:17:36;5.75;;;3.50;;
25731;SDS011;13585;50.864;4.406;2023-11-21T09:20:14;8.02;;;3.75;;
25731;SDS011;13585;50.864;4.406;2023-11-21T09:23:00;8.63;;;4.38;;
25731;SDS011;13585;50.864;4.406;2023-11-21T09:25:35;6.78;;;3.88;;
25731;SDS011;13585;50.864;4.406;2023-11-21T09:28:02;6.85;;;3.95;;
25731;SDS011;13585;50.864;4.406;2023-11-21T09:30:41;8.70;;;3.97;;
25731;SDS011;13585;50.864;4.406;2023-11-21T09:33:16;7.03;;;3.95;;
25731;SDS011;13585;50.864;4.406;2023-11-21T09:35:47;7.47;;;4.35;;
25731;SDS011;13585;50.864;4.406;2023-11-21T09:38:14;7.15;;;4.00;;
25731;SDS011;13585;50.864;4.406;2023-11-21T09:40:40;7.32;;;4.22;;
25731;SDS011;13585;50.864;4.406;2023-11-21T09:43:09;7.38;;;4.20;;
25731;SDS011;13585;50.864;4.406;2023-11-21T09:48:16;8.88;;;4.45;;
25731;SDS011;13585;50.864;4.406;2023-11-21T09:53:27;8.07;;;3.63;;
25731;SDS011;13585;50.864;4.406;2023-11-21T10:01:09;6.95;;;4.28;;
25731;SDS011;13585;50.864;4.406;2023-11-21T10:03:39;6.80;;;4.20;;
25731;SDS011;13585;50.864;4.406;2023-11-21T10:06:07;7.43;;;3.95;;
25731;SDS011;13585;50.864;4.406;2023-11-21T10:11:04;7.07;;;3.75;;
25731;SDS011;13585;50.864;4.406;2023-11-21T10:13:54;7.32;;;4.15;;
25731;SDS011;13585;50.864;4.406;2023-11-21T10:16:22;6.97;;;4.10;;
25731;SDS011;13585;50.864;4.406;2023-11-21T10:19:04;6.53;;;4.00;;
25731;SDS011;13585;50.864;4.406;2023-11-21T10:21:46;6.88;;;3.80;;
25731;SDS011;13585;50.864;4.406;2023-11-21T10:24:20;6.93;;;4.10;;
25731;SDS011;13585;50.864;4.406;2023-11-21T10:26:52;6.68;;;4.28;;
25731;SDS011;13585;50.864;4.406;2023-11-21T10:29:18;7.30;;;3.63;;
25731;SDS011;13585;50.864;4.406;2023-11-21T10:31:48;8.25;;;4.05;;
25731;SDS011;13585;50.864;4.406;2023-11-21T10:34:16;6.22;;;3.78;;
25731;SDS011;13585;50.864;4.406;2023-11-21T10:36:45;7.75;;;3.75;;
25731;SDS011;13585;50.864;4.406;2023-11-21T10:39:16;5.90;;;3.70;;
25731;SDS011;13585;50.864;4.406;2023-11-21T10:41:44;7.60;;;3.65;;
25731;SDS011;13585;50.864;4.406;2023-11-21T10:44:11;7.35;;;4.25;;
25731;SDS011;13585;50.864;4.406;2023-11-21T10:46:39;7.10;;;3.55;;
25731;SDS011;13585;50.864;4.406;2023-11-21T10:49:07;5.60;;;3.42;;
25731;SDS011;13585;50.864;4.406;2023-11-21T10:51:34;6.93;;;3.63;;
25731;SDS011;13585;50.864;4.406;2023-11-21T10:54:02;6.13;;;3.15;;
25731;SDS011;13585;50.864;4.406;2023-11-21T10:56:28;6.18;;;3.80;;
25731;SDS011;13585;50.864;4.406;2023-11-21T10:58:55;4.95;;;3.83;;
25731;SDS011;13585;50.864;4.406;2023-11-21T11:01:21;9.63;;;3.85;;
25731;SDS011;13585;50.864;4.406;2023-11-21T11:04:02;4.28;;;3.25;;
25731;SDS011;13585;50.864;4.406;2023-11-21T11:06:34;4.72;;;3.38;;
25731;SDS011;13585;50.864;4.406;2023-11-21T11:09:00;5.95;;;3.28;;
25731;SDS011;13585;50.864;4.406;2023-11-21T11:11:27;5.90;;;3.63;;
25731;SDS011;13585;50.864;4.406;2023-11-21T11:13:55;6.18;;;3.80;;
25731;SDS011;13585;50.864;4.406;2023-11-21T11:16:33;6.20;;;3.50;;
25731;SDS011;13585;50.864;4.406;2023-11-21T11:18:59;4.65;;;3.10;;
25731;SDS011;13585;50.864;4.406;2023-11-21T11:21:27;5.78;;;3.70;;
25731;SDS011;13585;50.864;4.406;2023-11-21T11:30:50;5.93;;;3.70;;
25731;SDS011;13585;50.864;4.406;2023-11-21T11:36:54;6.90;;;3.35;;
25731;SDS011;13585;50.864;4.406;2023-11-21T11:39:45;6.07;;;4.35;;
25731;SDS011;13585;50.864;4.406;2023-11-21T11:42:12;7.25;;;4.30;;
25731;SDS011;13585;50.864;4.406;2023-11-21T11:44:47;7.78;;;4.65;;
25731;SDS011;13585;50.864;4.406;2023-11-21T11:47:29;8.77;;;5.00;;
25731;SDS011;13585;50.864;4.406;2023-11-21T11:50:14;9.88;;;5.00;;
25731;SDS011;13585;50.864;4.406;2023-11-21T12:02:53;6.68;;;4.05;;
25731;SDS011;13585;50.864;4.406;2023-11-21T12:05:38;9.70;;;4.25;;
25731;SDS011;13585;50.864;4.406;2023-11-21T12:11:46;6.40;;;4.20;;
25731;SDS011;13585;50.864;4.406;2023-11-21T12:14:27;5.28;;;3.92;;
25731;SDS011;13585;50.864;4.406;2023-11-21T12:16:53;5.07;;;4.15;;
25731;SDS011;13585;50.864;4.406;2023-11-21T12:19:28;7.85;;;4.13;;
25731;SDS011;13585;50.864;4.406;2023-11-21T12:22:09;7.15;;;4.47;;
25731;SDS011;13585;50.864;4.406;2023-11-21T12:30:08;7.75;;;4.72;;
25731;SDS011;13585;50.864;4.406;2023-11-21T12:32:38;8.30;;;4.47;;
25731;SDS011;13585;50.864;4.406;2023-11-21T12:35:06;6.32;;;4.18;;
25731;SDS011;13585;50.864;4.406;2023-11-21T12:40:44;7.57;;;4.32;;
25731;SDS011;13585;50.864;4.406;2023-11-21T12:43:15;8.35;;;4.60;;
25731;SDS011;13585;50.864;4.406;2023-11-21T12:45:46;7.18;;;4.13;;
25731;SDS011;13585;50.864;4.406;2023-11-21T12:48:21;7.05;;;4.47;;
25731;SDS011;13585;50.864;4.406;2023-11-21T12:53:23;5.60;;;3.85;;
25731;SDS011;13585;50.864;4.406;2023-11-21T12:55:49;6.80;;;3.78;;
25731;SDS011;13585;50.864;4.406;2023-11-21T13:01:07;6.00;;;3.63;;
25731;SDS011;13585;50.864;4.406;2023-11-21T13:04:01;6.68;;;3.75;;
25731;SDS011;13585;50.864;4.406;2023-11-21T13:06:33;4.65;;;3.72;;
25731;SDS011;13585;50.864;4.406;2023-11-21T13:09:03;5.25;;;4.03;;
25731;SDS011;13585;50.864;4.406;2023-11-21T13:11:36;3.95;;;3.40;;
25731;SDS011;13585;50.864;4.406;2023-11-21T13:14:02;5.50;;;3.70;;
25731;SDS011;13585;50.864;4.406;2023-11-21T13:16:34;4.82;;;3.88;;
25731;SDS011;13585;50.864;4.406;2023-11-21T13:19:02;6.45;;;3.55;;
25731;SDS011;13585;50.864;4.406;2023-11-21T13:21:31;4.93;;;3.67;;
25731;SDS011;13585;50.864;4.406;2023-11-21T13:24:09;7.10;;;3.80;;
25731;SDS011;13585;50.864;4.406;2023-11-21T13:26:35;4.43;;;3.47;;
25731;SDS011;13585;50.864;4.406;2023-11-21T13:31:32;4.38;;;3.35;;
25731;SDS011;13585;50.864;4.406;2023-11-21T13:42:12;5.18;;;3.10;;
25731;SDS011;13585;50.864;4.406;2023-11-21T13:44:39;5.63;;;3.50;;
25731;SDS011;13585;50.864;4.406;2023-11-21T13:47:18;4.53;;;3.67;;
25731;SDS011;13585;50.864;4.406;2023-11-21T13:49:44;4.95;;;3.28;;
25731;SDS011;13585;50.864;4.406;2023-11-21T13:52:09;4.75;;;3.45;;
25731;SDS011;13585;50.864;4.406;2023-11-21T13:54:40;8.25;;;2.97;;
25731;SDS011;13585;50.864;4.406;2023-11-21T13:57:21;4.18;;;3.15;;
25731;SDS011;13585;50.864;4.406;2023-11-21T14:04:56;4.18;;;3.08;;
25731;SDS011;13585;50.864;4.406;2023-11-21T14:07:25;4.38;;;3.20;;
25731;SDS011;13585;50.864;4.406;2023-11-21T14:10:13;4.70;;;3.35;;
25731;SDS011;13585;50.864;4.406;2023-11-21T14:12:39;4.28;;;3.08;;
25731;SDS011;13585;50.864;4.406;2023-11-21T14:15:19;4.25;;;2.90;;
25731;SDS011;13585;50.864;4.406;2023-11-21T14:20:19;4.25;;;3.03;;
25731;SDS011;13585;50.864;4.406;2023-11-21T14:23:01;4.88;;;3.10;;
25731;SDS011;13585;50.864;4.406;2023-11-21T14:28:26;7.30;;;2.55;;
25731;SDS011;13585;50.864;4.406;2023-11-21T14:31:04;3.38;;;2.80;;
25731;SDS011;13585;50.864;4.406;2023-11-21T14:33:41;3.60;;;2.90;;
25731;SDS011;13585;50.864;4.406;2023-11-21T14:36:20;3.08;;;2.70;;
25731;SDS011;13585;50.864;4.406;2023-11-21T14:38:45;4.05;;;3.03;;
25731;SDS011;13585;50.864;4.406;2023-11-21T14:41:11;3.83;;;2.83;;
25731;SDS011;13585;50.864;4.406;2023-11-21T14:43:37;3.00;;;2.50;;
25731;SDS011;13585;50.864;4.406;2023-11-21T14:51:20;4.18;;;2.70;;
25731;SDS011;13585;50.864;4.406;2023-11-21T14:54:10;3.13;;;2.80;;
25731;SDS011;13585;50.864;4.406;2023-11-21T14:59:14;4.18;;;2.88;;
25731;SDS011;13585;50.864;4.406;2023-11-21T15:01:41;4.82;;;3.10;;
25731;SDS011;13585;50.864;4.406;2023-11-21T15:04:34;3.83;;;2.80;;
25731;SDS011;13585;50.864;4.406;2023-11-21T15:07:10;3.50;;;2.63;;
25731;SDS011;13585;50.864;4.406;2023-11-21T15:09:38;5.43;;;2.78;;
25731;SDS011;13585;50.864;4.406;2023-11-21T15:12:08;3.70;;;2.60;;
25731;SDS011;13585;50.864;4.406;2023-11-21T15:15:18;3.03;;;2.70;;
25731;SDS011;13585;50.864;4.406;2023-11-21T15:17:55;3.40;;;2.75;;
25731;SDS011;13585;50.864;4.406;2023-11-21T15:20:21;4.20;;;3.00;;
25731;SDS011;13585;50.864;4.406;2023-11-21T15:22:47;3.17;;;2.80;;
25731;SDS011;13585;50.864;4.406;2023-11-21T15:25:13;3.78;;;2.90;;
25731;SDS011;13585;50.864;4.406;2023-11-21T15:27:39;2.72;;;2.40;;
25731;SDS011;13585;50.864;4.406;2023-11-21T15:30:06;4.43;;;2.88;;
25731;SDS011;13585;50.864;4.406;2023-11-21T15:32:33;4.38;;;2.67;;
25731;SDS011;13585;50.864;4.406;2023-11-21T15:34:59;3.40;;;2.67;;
25731;SDS011;13585;50.864;4.406;2023-11-21T15:37:28;4.82;;;2.80;;
25731;SDS011;13585;50.864;4.406;2023-11-21T15:39:54;5.88;;;2.95;;
25731;SDS011;13585;50.864;4.406;2023-11-21T15:42:19;3.40;;;2.70;;
25731;SDS011;13585;50.864;4.406;2023-11-21T15:44:57;5.82;;;3.00;;
25731;SDS011;13585;50.864;4.406;2023-11-21T15:47:22;3.65;;;3.15;;
25731;SDS011;13585;50.864;4.406;2023-11-21T15:49:49;3.67;;;3.10;;
25731;SDS011;13585;50.864;4.406;2023-11-21T15:52:15;4.47;;;2.72;;
25731;SDS011;13585;50.864;4.406;2023-11-21T15:54:42;4.75;;;3.15;;
25731;SDS011;13585;50.864;4.406;2023-11-21T15:57:13;4.15;;;3.00;;
25731;SDS011;13585;50.864;4.406;2023-11-21T15:59:42;3.40;;;2.90;;
25731;SDS011;13585;50.864;4.406;2023-11-21T16:02:08;4.20;;;2.97;;
25731;SDS011;13585;50.864;4.406;2023-11-21T16:04:35;4.97;;;2.80;;
25731;SDS011;13585;50.864;4.406;2023-11-21T16:07:08;3.25;;;2.75;;
25731;SDS011;13585;50.864;4.406;2023-11-21T16:09:35;4.65;;;2.88;;
25731;SDS011;13585;50.864;4.406;2023-11-21T16:12:03;4.55;;;3.25;;
25731;SDS011;13585;50.864;4.406;2023-11-21T16:14:31;3.45;;;2.65;;
25731;SDS011;13585;50.864;4.406;2023-11-21T16:17:29;3.17;;;2.88;;
25731;SDS011;13585;50.864;4.406;2023-11-21T16:19:55;3.75;;;3.05;;
25731;SDS011;13585;50.864;4.406;2023-11-21T16:22:23;3.47;;;2.90;;
25731;SDS011;13585;50.864;4.406;2023-11-21T16:27:19;6.32;;;3.35;;
25731;SDS011;13585;50.864;4.406;2023-11-21T16:30:00;4.10;;;2.95;;